Weather at Beauvechain Airport - EBBE


metar: EBBE 200825Z AUTO 07012KT 9999 BKN110/// 14/10 Q1006 BLU

49 minuten geleden, om 08:25 UTC, de wind blies met windsnelheden van 6.2 meter per seconde(13.8 mijl per uur) vanuit Oost-noordoost nabij Beauvechain airport. De temperatuur was 14 °C (57 °F), en de barometerdruk was 1,006 hPa (29.71 inHg). De relatieve vochtigheid was 76.8%. er was geen bewolking. De zichtbaarheid was >10 kilometer (>6.2 mijl).

temperature image   windir image sky image 

Last 24 hour graph Beauvechain Airport - EBBE